Time;durP1;ratioP1;P1;durP2;ratioP2;P2;SDS_P1;SDS_P2;PMS_P1;PMS_P2;Temp;Humidity;BMP_temperature;BMP_pressure;BME280_temperature;BME280_humidity;BME280_pressure;Samples;Min_cycle;Max_cycle;Signal;HPM_P1;HPM_P2
2021/10/06 00:01:34;;;;;;;1.92;1.35;;;12.30;83.90;;;;;;5010671;28;20034;-78
2021/10/06 00:04:00;;;;;;;3.33;2.40;;;12.30;83.90;;;;;;5009650;28;20517;-78
2021/10/06 00:06:25;;;;;;;4.00;2.15;;;12.30;84.00;;;;;;5010814;28;20034;-77
2021/10/06 00:08:51;;;;;;;2.90;1.70;;;12.20;84.20;;;;;;5010789;28;20064;-77
2021/10/06 00:11:17;;;;;;;3.85;2.10;;;12.20;84.30;;;;;;5010589;28;20022;-77
2021/10/06 00:13:45;;;;;;;3.92;2.70;;;12.20;84.30;;;;;;5011055;28;20060;-77
2021/10/06 00:16:12;;;;;;;3.20;2.60;;;12.20;84.40;;;;;;5011187;28;20030;-77
2021/10/06 00:18:39;;;;;;;4.03;2.15;;;12.20;84.60;;;;;;5008859;28;20026;-77
2021/10/06 00:21:05;;;;;;;2.42;2.15;;;12.20;84.60;;;;;;5010894;28;20034;-77
2021/10/06 00:23:32;;;;;;;5.43;2.60;;;12.20;84.60;;;;;;5010718;28;20468;-78
2021/10/06 00:26:03;;;;;;;3.83;2.67;;;12.20;84.70;;;;;;5009887;28;20108;-77
2021/10/06 00:28:28;;;;;;;4.35;2.80;;;12.30;84.70;;;;;;5009476;28;20026;-77
2021/10/06 00:30:55;;;;;;;5.25;2.50;;;12.20;84.90;;;;;;5008983;28;20022;-77
2021/10/06 00:33:21;;;;;;;6.28;3.15;;;12.20;85.00;;;;;;5010922;28;20030;-77
2021/10/06 00:35:46;;;;;;;6.00;3.00;;;12.20;85.00;;;;;;5010054;28;20377;-76
2021/10/06 00:38:12;;;;;;;6.00;3.22;;;12.20;85.20;;;;;;5010917;28;20072;-77
2021/10/06 00:40:37;;;;;;;6.00;2.88;;;12.10;85.30;;;;;;5010256;28;20030;-76
2021/10/06 00:43:03;;;;;;;3.75;2.40;;;12.10;85.60;;;;;;5010452;28;20074;-78
2021/10/06 00:45:29;;;;;;;2.60;1.90;;;12.10;86.30;;;;;;5010045;28;20030;-77
2021/10/06 00:47:55;;;;;;;4.70;2.38;;;12.10;85.60;;;;;;5010411;28;20037;-77
2021/10/06 00:50:20;;;;;;;4.60;2.30;;;12.20;85.60;;;;;;5010348;28;20066;-78
2021/10/06 00:52:46;;;;;;;4.15;2.40;;;12.10;85.60;;;;;;5010315;28;20026;-77
2021/10/06 00:55:13;;;;;;;4.22;2.17;;;12.10;85.70;;;;;;5010091;28;20071;-78
2021/10/06 00:57:39;;;;;;;3.40;2.20;;;12.10;85.70;;;;;;5010238;28;20037;-78
2021/10/06 01:00:05;;;;;;;3.53;1.48;;;12.10;85.60;;;;;;5010319;28;20034;-78
2021/10/06 01:02:31;;;;;;;3.58;1.50;;;12.20;85.60;;;;;;5009250;28;20052;-78
2021/10/06 01:04:56;;;;;;;3.88;1.58;;;12.30;85.50;;;;;;5009896;28;20399;-77
2021/10/06 01:07:22;;;;;;;4.05;1.63;;;12.30;85.40;;;;;;5009336;28;20431;-78
2021/10/06 01:09:48;;;;;;;5.20;2.17;;;12.30;85.40;;;;;;5009727;28;20181;-78
2021/10/06 01:12:14;;;;;;;4.60;1.60;;;12.30;85.30;;;;;;5037006;28;20385;-78
2021/10/06 01:14:40;;;;;;;4.55;1.80;;;12.30;85.20;;;;;;5010017;28;20025;-78
2021/10/06 01:17:06;;;;;;;2.67;1.73;;;12.30;85.10;;;;;;5008396;28;20030;-78
2021/10/06 01:19:32;;;;;;;2.47;1.50;;;12.30;85.10;;;;;;5008144;28;20026;-77
2021/10/06 01:21:58;;;;;;;3.17;1.30;;;12.30;85.10;;;;;;5009658;28;20167;-78
2021/10/06 01:24:25;;;;;;;4.55;1.70;;;12.40;85.10;;;;;;5009147;28;20022;-77
2021/10/06 01:26:51;;;;;;;4.68;1.73;;;12.40;84.90;;;;;;5009311;28;20061;-78
2021/10/06 01:29:17;;;;;;;4.20;1.42;;;12.30;84.80;;;;;;5005581;28;20030;-77
2021/10/06 01:31:44;;;;;;;4.13;1.60;;;12.40;84.80;;;;;;5007744;28;20037;-77
2021/10/06 01:34:10;;;;;;;3.13;1.45;;;12.40;84.70;;;;;;5006803;28;20034;-76
2021/10/06 01:36:37;;;;;;;6.20;1.77;;;12.40;84.70;;;;;;5009758;28;20041;-77
2021/10/06 01:39:06;;;;;;;4.18;1.60;;;12.40;84.60;;;;;;5008806;28;20018;-77
2021/10/06 01:41:32;;;;;;;3.30;1.40;;;12.40;85.20;;;;;;5009159;28;20318;-77
2021/10/06 01:43:57;;;;;;;2.85;1.30;;;12.40;84.50;;;;;;5009509;28;20026;-77
2021/10/06 01:46:23;;;;;;;6.35;1.70;;;12.40;84.50;;;;;;5009394;28;20069;-77
2021/10/06 01:48:50;;;;;;;4.75;1.65;;;12.40;84.40;;;;;;5009319;28;20079;-77
2021/10/06 01:51:15;;;;;;;6.80;1.48;;;12.40;84.40;;;;;;5008793;28;20026;-77
2021/10/06 01:53:41;;;;;;;4.75;1.58;;;12.40;84.30;;;;;;5009528;28;20116;-77
2021/10/06 01:56:06;;;;;;;3.22;1.30;;;12.40;84.30;;;;;;5008962;28;20046;-77
2021/10/06 01:58:32;;;;;;;4.70;1.60;;;12.50;84.30;;;;;;5009200;28;20071;-77
2021/10/06 02:00:58;;;;;;;5.53;1.77;;;12.40;84.30;;;;;;5007568;28;20026;-77
2021/10/06 02:03:24;;;;;;;2.72;1.10;;;12.40;84.30;;;;;;5009444;28;20041;-77
2021/10/06 02:05:49;;;;;;;3.17;1.20;;;12.40;84.40;;;;;;5008353;28;20026;-77
2021/10/06 02:08:16;;;;;;;3.28;1.20;;;12.40;84.40;;;;;;5007883;28;20054;-78
2021/10/06 02:10:43;;;;;;;3.53;1.40;;;12.40;84.50;;;;;;5008337;28;20022;-77
2021/10/06 02:13:09;;;;;;;3.10;1.33;;;12.40;84.60;;;;;;5009109;28;20026;-77
2021/10/06 02:15:35;;;;;;;3.03;1.30;;;12.40;85.30;;;;;;5001934;28;20037;-76
2021/10/06 02:18:00;;;;;;;4.05;1.60;;;12.40;84.70;;;;;;5008696;28;20018;-77
2021/10/06 02:20:27;;;;;;;1.83;1.10;;;12.40;84.60;;;;;;5008623;28;20026;-77
2021/10/06 02:22:53;;;;;;;3.83;1.35;;;12.40;84.70;;;;;;5009316;28;20035;-77
2021/10/06 02:25:18;;;;;;;3.42;1.30;;;12.40;84.70;;;;;;5008754;28;20637;-77
2021/10/06 02:27:44;;;;;;;4.25;1.40;;;12.40;84.70;;;;;;5008563;28;20071;-77
2021/10/06 02:30:11;;;;;;;4.82;1.52;;;12.40;84.70;;;;;;5008648;28;20087;-77
2021/10/06 02:32:37;;;;;;;3.78;1.40;;;12.40;84.80;;;;;;5008176;28;20476;-77
2021/10/06 02:35:03;;;;;;;4.20;1.38;;;12.40;84.70;;;;;;5008972;28;20066;-77
2021/10/06 02:37:28;;;;;;;2.60;1.50;;;12.40;84.70;;;;;;5006811;28;20042;-77
2021/10/06 02:39:54;;;;;;;4.10;1.48;;;12.40;84.70;;;;;;5008990;28;20029;-77
2021/10/06 02:42:19;;;;;;;4.05;1.58;;;12.40;84.70;;;;;;5008552;28;20105;-77
2021/10/06 02:44:45;;;;;;;6.90;2.20;;;12.30;84.60;;;;;;5009146;28;20036;-77
2021/10/06 02:47:10;;;;;;;3.92;1.60;;;12.30;84.70;;;;;;5008065;28;20030;-77
2021/10/06 02:49:36;;;;;;;6.30;1.80;;;12.30;84.70;;;;;;5006949;28;20025;-77
2021/10/06 02:52:03;;;;;;;5.18;1.88;;;12.30;84.70;;;;;;5007813;28;20411;-76
2021/10/06 02:54:29;;;;;;;4.80;1.35;;;12.30;84.70;;;;;;5008187;28;20026;-76
2021/10/06 02:56:55;;;;;;;3.15;1.30;;;12.30;84.70;;;;;;5007850;28;20052;-76
2021/10/06 02:59:20;;;;;;;4.20;1.42;;;12.30;84.70;;;;;;5006595;28;20379;-77
2021/10/06 03:01:46;;;;;;;3.20;1.55;;;12.30;84.80;;;;;;5011570;28;20033;-76
2021/10/06 03:04:11;;;;;;;4.78;1.80;;;12.20;84.80;;;;;;5006863;28;20022;-77
2021/10/06 03:06:37;;;;;;;6.25;1.95;;;12.20;84.80;;;;;;5007349;28;20113;-77
2021/10/06 03:09:03;;;;;;;4.25;1.70;;;12.20;85.00;;;;;;5007750;28;20026;-77
2021/10/06 03:11:28;;;;;;;5.07;1.50;;;12.20;85.00;;;;;;5006892;28;20029;-77
2021/10/06 03:13:54;;;;;;;4.05;2.00;;;12.20;85.00;;;;;;5008103;28;20037;-77
2021/10/06 03:16:20;;;;;;;6.20;2.05;;;12.10;85.00;;;;;;5007873;28;20030;-77
2021/10/06 03:18:45;;;;;;;7.40;2.28;;;12.10;85.10;;;;;;5007467;28;20383;-77
2021/10/06 03:21:11;;;;;;;4.15;1.92;;;12.10;85.20;;;;;;5007969;28;20034;-77
2021/10/06 03:23:36;;;;;;;4.68;1.77;;;12.10;85.30;;;;;;5008477;28;20018;-77
2021/10/06 03:26:02;;;;;;;6.50;2.30;;;12.10;85.40;;;;;;5006934;28;20486;-77
2021/10/06 03:28:28;;;;;;;4.38;1.90;;;12.10;85.50;;;;;;5007179;28;20018;-77
2021/10/06 03:30:53;;;;;;;3.97;1.70;;;12.10;85.60;;;;;;5007972;28;20400;-77
2021/10/06 03:33:19;;;;;;;5.20;2.13;;;12.10;85.60;;;;;;5008191;28;20113;-76
2021/10/06 03:35:44;;;;;;;3.35;1.60;;;12.10;85.80;;;;;;5007941;28;20152;-77
2021/10/06 03:38:10;;;;;;;2.83;1.50;;;12.10;85.70;;;;;;5007540;28;20482;-76
2021/10/06 03:40:35;;;;;;;4.05;2.00;;;12.10;85.60;;;;;;5007913;28;20496;-76
2021/10/06 03:43:01;;;;;;;7.03;2.30;;;12.10;85.70;;;;;;5006656;28;20150;-76
2021/10/06 03:45:26;;;;;;;4.55;1.88;;;12.10;85.80;;;;;;5007989;28;20449;-77
2021/10/06 03:47:52;;;;;;;4.38;2.30;;;12.10;85.80;;;;;;5007242;28;20026;-77
2021/10/06 03:50:19;;;;;;;4.65;2.30;;;12.10;85.90;;;;;;5005878;28;20482;-76
2021/10/06 03:52:45;;;;;;;3.83;1.70;;;12.10;86.00;;;;;;5007554;28;20022;-76
2021/10/06 03:55:11;;;;;;;3.63;2.00;;;12.00;86.00;;;;;;5006420;28;20609;-75
2021/10/06 03:57:37;;;;;;;3.60;1.73;;;12.00;86.10;;;;;;5006911;28;20022;-76
2021/10/06 04:00:05;;;;;;;5.40;2.50;;;12.00;86.20;;;;;;5007272;28;20072;-77
2021/10/06 04:02:30;;;;;;;6.43;2.10;;;12.00;86.30;;;;;;5010039;28;20026;-76
2021/10/06 04:04:56;;;;;;;4.47;1.80;;;11.90;86.40;;;;;;5011266;28;20033;-76
2021/10/06 04:07:22;;;;;;;4.00;1.70;;;11.90;87.00;;;;;;5010218;28;20054;-75
2021/10/06 04:09:47;;;;;;;5.80;2.08;;;12.00;86.50;;;;;;5006539;28;20387;-76
2021/10/06 04:12:13;;;;;;;3.17;1.50;;;11.90;86.40;;;;;;5009266;28;20407;-77
2021/10/06 04:14:38;;;;;;;2.22;1.40;;;12.00;86.40;;;;;;5010496;28;20507;-77
2021/10/06 04:17:04;;;;;;;3.10;1.70;;;12.00;86.30;;;;;;5010390;28;20037;-76
2021/10/06 04:19:29;;;;;;;3.58;1.83;;;12.00;86.30;;;;;;5023597;28;20033;-77
2021/10/06 04:21:55;;;;;;;3.80;1.83;;;12.00;86.30;;;;;;5022258;28;20030;-77
2021/10/06 04:24:20;;;;;;;4.95;1.95;;;12.10;86.40;;;;;;5015282;28;20082;-76
2021/10/06 04:26:46;;;;;;;3.85;1.70;;;12.00;86.30;;;;;;5028053;28;20033;-77
2021/10/06 04:29:11;;;;;;;2.97;1.65;;;12.00;86.30;;;;;;5021821;28;20082;-76
2021/10/06 04:31:37;;;;;;;3.20;1.35;;;12.00;86.30;;;;;;5029558;28;20106;-76
2021/10/06 04:34:02;;;;;;;1.95;1.20;;;11.90;86.30;;;;;;5019827;28;20475;-76
2021/10/06 04:36:28;;;;;;;2.97;1.23;;;11.90;86.20;;;;;;5013825;28;20117;-76
2021/10/06 04:38:54;;;;;;;1.70;1.00;;;11.90;86.20;;;;;;5027233;28;20130;-76
2021/10/06 04:41:19;;;;;;;1.10;1.00;;;11.90;86.10;;;;;;5029890;28;20031;-77
2021/10/06 04:43:45;;;;;;;1.48;1.20;;;11.80;86.10;;;;;;5060461;28;20424;-78
2021/10/06 04:46:10;;;;;;;1.52;1.42;;;11.80;86.10;;;;;;5013595;28;20030;-77
2021/10/06 04:48:36;;;;;;;2.50;1.52;;;11.80;86.00;;;;;;5010129;28;20041;-76
2021/10/06 04:51:01;;;;;;;2.17;1.63;;;11.80;86.10;;;;;;5021622;28;20142;-77
2021/10/06 04:53:27;;;;;;;2.50;1.40;;;11.80;86.10;;;;;;5028971;28;20030;-77
2021/10/06 04:55:52;;;;;;;4.07;2.30;;;11.70;86.20;;;;;;5029905;28;20045;-77
2021/10/06 04:58:17;;;;;;;2.03;1.60;;;11.70;86.30;;;;;;5024435;28;20071;-76
2021/10/06 05:00:43;;;;;;;3.03;1.60;;;11.70;86.50;;;;;;5020123;28;20030;-77
2021/10/06 05:03:10;;;;;;;3.13;1.60;;;11.70;86.60;;;;;;5025644;28;20355;-77
2021/10/06 05:05:37;;;;;;;2.63;1.90;;;11.70;86.70;;;;;;5028906;28;20364;-77
2021/10/06 05:08:03;;;;;;;4.60;2.00;;;11.80;86.70;;;;;;5023031;28;20121;-76
2021/10/06 05:10:29;;;;;;;4.57;2.25;;;11.80;86.70;;;;;;5020922;28;20018;-76
2021/10/06 05:12:54;;;;;;;4.85;2.03;;;11.80;86.80;;;;;;5008800;28;20049;-77
2021/10/06 05:15:20;;;;;;;3.50;1.88;;;11.70;86.80;;;;;;5009351;28;20044;-76
2021/10/06 05:17:46;;;;;;;2.75;2.00;;;11.80;86.90;;;;;;5003749;28;20026;-76
2021/10/06 05:20:11;;;;;;;2.30;1.75;;;11.80;86.80;;;;;;5007880;28;20075;-76
2021/10/06 05:22:37;;;;;;;4.15;2.10;;;11.80;86.80;;;;;;5014974;28;20025;-78
2021/10/06 05:25:03;;;;;;;5.63;2.83;;;11.80;86.70;;;;;;5002693;28;20097;-77
2021/10/06 05:27:30;;;;;;;5.30;2.60;;;11.70;86.90;;;;;;5007864;28;20030;-76
2021/10/06 05:29:57;;;;;;;4.68;2.00;;;11.70;87.10;;;;;;5003654;28;20026;-77
2021/10/06 05:32:23;;;;;;;5.40;2.10;;;11.70;87.20;;;;;;5004522;28;20018;-76
2021/10/06 05:34:48;;;;;;;5.32;2.22;;;11.70;87.30;;;;;;5008173;28;20059;-76
2021/10/06 05:37:14;;;;;;;7.45;2.70;;;11.70;87.40;;;;;;5003727;28;20044;-77
2021/10/06 05:39:40;;;;;;;7.53;3.17;;;11.70;87.40;;;;;;5008848;28;20049;-76
2021/10/06 05:42:06;;;;;;;5.43;2.35;;;11.60;87.50;;;;;;5008264;28;20087;-82
2021/10/06 05:44:31;;;;;;;6.75;2.92;;;11.60;87.70;;;;;;5000471;28;20535;-80
2021/10/06 05:46:57;;;;;;;3.67;1.83;;;11.60;87.80;;;;;;5001726;28;20033;-78
2021/10/06 05:49:22;;;;;;;6.10;2.22;;;11.60;87.90;;;;;;5008306;28;20507;-79
2021/10/06 05:51:48;;;;;;;4.85;2.10;;;11.60;87.80;;;;;;5002059;28;20369;-80
2021/10/06 05:54:13;;;;;;;3.83;2.28;;;11.60;87.80;;;;;;5008080;28;20086;-79
2021/10/06 05:56:39;;;;;;;6.25;2.30;;;11.60;87.80;;;;;;5008472;28;20034;-78
2021/10/06 05:59:05;;;;;;;4.07;2.33;;;11.60;87.90;;;;;;5002575;28;20038;-79
2021/10/06 06:01:30;;;;;;;2.17;1.38;;;11.50;88.00;;;;;;5003869;28;20022;-78
2021/10/06 06:03:56;;;;;;;6.20;2.63;;;11.50;88.10;;;;;;5003926;28;20422;-79
2021/10/06 06:06:22;;;;;;;4.75;2.38;;;11.50;88.10;;;;;;5000479;28;20061;-79
2021/10/06 06:08:47;;;;;;;4.43;2.75;;;11.50;88.20;;;;;;5004180;28;20022;-79
2021/10/06 06:11:14;;;;;;;6.82;2.67;;;11.50;88.20;;;;;;5002096;28;20026;-80
2021/10/06 06:13:39;;;;;;;4.93;2.22;;;11.60;88.20;;;;;;4995968;28;20022;-80
2021/10/06 06:16:05;;;;;;;4.70;2.28;;;11.50;88.20;;;;;;5007179;28;20520;-80
2021/10/06 06:18:31;;;;;;;6.38;2.80;;;11.50;88.20;;;;;;4993031;28;20019;-80
2021/10/06 06:20:57;;;;;;;6.40;2.50;;;11.50;88.20;;;;;;5013364;28;20116;-80
2021/10/06 06:23:22;;;;;;;5.63;2.80;;;11.50;88.30;;;;;;5008133;28;20108;-79
2021/10/06 06:25:50;;;;;;;7.97;3.38;;;11.50;88.30;;;;;;5001562;28;20074;-79
2021/10/06 06:28:15;;;;;;;3.03;2.10;;;11.50;88.40;;;;;;5006497;28;20612;-79
2021/10/06 06:30:41;;;;;;;6.43;2.70;;;11.50;88.50;;;;;;5001959;28;20054;-80
2021/10/06 06:33:07;;;;;;;5.20;3.03;;;11.50;88.60;;;;;;5002577;28;20030;-79
2021/10/06 06:35:33;;;;;;;5.30;2.85;;;11.50;88.60;;;;;;5005440;28;20038;-81
2021/10/06 06:37:59;;;;;;;5.95;3.08;;;11.50;88.60;;;;;;4995871;28;20075;-79
2021/10/06 06:40:25;;;;;;;6.75;2.40;;;11.50;88.60;;;;;;5013541;28;20033;-81
2021/10/06 06:42:50;;;;;;;5.63;2.20;;;11.50;88.70;;;;;;5010534;28;20357;-80
2021/10/06 06:45:16;;;;;;;6.80;2.42;;;11.50;88.70;;;;;;5013676;28;20091;-79
2021/10/06 06:47:41;;;;;;;3.42;2.03;;;11.50;88.70;;;;;;5002443;28;20041;-80
2021/10/06 06:50:10;;;;;;;3.63;2.30;;;11.50;88.70;;;;;;5041713;28;20029;-78
2021/10/06 06:52:36;;;;;;;5.05;2.10;;;11.50;88.70;;;;;;5016713;28;20136;-77
2021/10/06 06:55:01;;;;;;;5.85;2.47;;;11.50;88.70;;;;;;5021732;28;20116;-77
2021/10/06 06:57:27;;;;;;;2.47;1.77;;;11.50;88.60;;;;;;5004029;28;20553;-78
2021/10/06 06:59:53;;;;;;;4.47;2.22;;;11.50;88.60;;;;;;4999430;28;20026;-78
2021/10/06 07:02:19;;;;;;;5.75;2.80;;;11.50;88.60;;;;;;5007767;28;20384;-78
2021/10/06 07:04:44;;;;;;;4.63;2.50;;;11.60;88.70;;;;;;5001898;28;20116;-79
2021/10/06 07:07:13;;;;;;;2.42;1.60;;;11.50;88.70;;;;;;5002513;28;20048;-80
2021/10/06 07:09:46;;;;;;;5.07;2.55;;;11.50;88.70;;;;;;5006254;28;20018;-81
2021/10/06 07:12:13;;;;;;;5.30;2.70;;;11.50;88.70;;;;;;5005150;28;20032;-81
2021/10/06 07:14:38;;;;;;;2.10;1.55;;;11.50;88.70;;;;;;5003871;28;20018;-81
2021/10/06 07:17:04;;;;;;;2.05;1.52;;;11.60;88.70;;;;;;5011480;28;20037;-80
2021/10/06 07:19:29;;;;;;;3.83;2.13;;;11.60;88.60;;;;;;5003724;28;20372;-80
2021/10/06 07:21:55;;;;;;;3.60;2.30;;;11.70;88.60;;;;;;5066276;28;20399;-79
2021/10/06 07:24:20;;;;;;;3.67;2.42;;;11.70;88.60;;;;;;4997439;28;20107;-80
2021/10/06 07:26:46;;;;;;;3.47;1.50;;;11.70;88.50;;;;;;4996828;28;20379;-78
2021/10/06 07:29:11;;;;;;;2.45;1.83;;;11.70;88.50;;;;;;5008195;28;20034;-81
2021/10/06 07:31:37;;;;;;;2.05;1.40;;;11.70;88.50;;;;;;5004793;28;20033;-79
2021/10/06 07:34:03;;;;;;;1.65;1.30;;;11.70;88.50;;;;;;5006722;28;20040;-80
2021/10/06 07:36:29;;;;;;;2.85;1.60;;;11.70;88.40;;;;;;5041120;28;20052;-85
2021/10/06 07:38:56;;;;;;;1.75;1.40;;;11.80;88.40;;;;;;5006989;28;20105;-81
2021/10/06 07:41:22;;;;;;;1.40;1.17;;;11.80;88.30;;;;;;5006545;28;20018;-86
2021/10/06 07:43:48;;;;;;;3.45;2.10;;;11.80;88.30;;;;;;5003582;28;20026;-79
2021/10/06 07:46:14;;;;;;;2.38;1.30;;;11.80;88.30;;;;;;5008981;28;20383;-82
2021/10/06 07:48:40;;;;;;;1.70;1.52;;;11.80;88.40;;;;;;5008597;28;20025;-82
2021/10/06 07:51:06;;;;;;;2.13;1.50;;;11.80;88.40;;;;;;5020177;28;20028;-83
2021/10/06 07:53:32;;;;;;;2.33;1.67;;;11.80;88.50;;;;;;5004275;28;20409;-81
2021/10/06 07:55:57;;;;;;;2.50;1.80;;;11.90;88.50;;;;;;5006252;28;20038;-83
2021/10/06 07:58:23;;;;;;;2.53;1.50;;;11.90;88.40;;;;;;5008350;28;20060;-80
2021/10/06 08:00:48;;;;;;;1.73;1.48;;;11.90;88.40;;;;;;5008750;28;20022;-80
2021/10/06 08:03:14;;;;;;;1.75;1.40;;;11.90;88.40;;;;;;5006132;28;20484;-82
2021/10/06 08:05:40;;;;;;;1.60;1.50;;;12.00;88.40;;;;;;5007821;28;20094;-81
2021/10/06 08:08:05;;;;;;;9.50;8.55;;;11.90;88.40;;;;;;5008745;28;20392;-80
2021/10/06 08:10:31;;;;;;;5.22;4.00;;;11.90;88.50;;;;;;5009043;28;20034;-80
2021/10/06 08:12:59;;;;;;;7.15;6.45;;;12.00;88.60;;;;;;5009439;28;20025;-82
2021/10/06 08:15:25;;;;;;;5.35;3.10;;;12.00;88.50;;;;;;5111228;27;20033;-81
2021/10/06 08:17:50;;;;;;;3.40;2.80;;;12.00;88.50;;;;;;5019416;28;20392;-81
2021/10/06 08:20:17;;;;;;;6.32;4.85;;;12.00;88.50;;;;;;5037171;28;20022;-83
2021/10/06 08:22:43;;;;;;;4.30;3.05;;;12.00;88.60;;;;;;5010938;28;20038;-83
2021/10/06 08:25:09;;;;;;;3.90;3.25;;;11.90;88.60;;;;;;5017980;28;20487;-82
2021/10/06 08:27:34;;;;;;;5.00;3.20;;;11.90;88.70;;;;;;5013808;28;20030;-82
2021/10/06 08:30:00;;;;;;;8.65;7.43;;;11.90;88.80;;;;;;5014226;28;20026;-83
2021/10/06 08:32:25;;;;;;;5.90;4.38;;;12.00;88.90;;;;;;5028907;28;20071;-83
2021/10/06 08:34:53;;;;;;;5.95;4.15;;;12.00;88.80;;;;;;5048156;28;20011;-83
2021/10/06 08:37:19;;;;;;;16.83;10.45;;;12.00;88.90;;;;;;5066038;28;20060;-82
2021/10/06 08:39:46;;;;;;;81.78;41.35;;;11.90;88.90;;;;;;5048885;28;20094;-83
2021/10/06 08:42:11;;;;;;;36.85;22.60;;;12.00;89.00;;;;;;5057328;28;20024;-80
2021/10/06 08:44:38;;;;;;;6.97;5.05;;;12.00;89.20;;;;;;5026285;28;20022;-77
2021/10/06 08:47:05;;;;;;;6.00;4.28;;;12.00;89.40;;;;;;5048087;28;20031;-78
2021/10/06 08:49:33;;;;;;;5.60;4.75;;;12.00;89.50;;;;;;5046235;28;20048;-76
2021/10/06 08:51:58;;;;;;;13.35;12.15;;;12.00;89.70;;;;;;5042241;28;20043;-76
2021/10/06 08:54:24;;;;;;;5.70;5.10;;;12.00;89.90;;;;;;5047419;28;20022;-78
2021/10/06 08:56:50;;;;;;;7.00;6.32;;;12.00;89.90;;;;;;5073207;28;20034;-77
2021/10/06 08:59:16;;;;;;;7.93;7.18;;;12.10;89.80;;;;;;5045967;28;20531;-78
2021/10/06 09:01:43;;;;;;;5.97;5.32;;;12.00;89.90;;;;;;5031042;28;20065;-79
2021/10/06 09:04:09;;;;;;;3.75;2.60;;;12.10;89.80;;;;;;5009363;28;20360;-82
2021/10/06 09:06:37;;;;;;;3.00;2.63;;;12.20;89.70;;;;;;5010483;28;20025;-81
2021/10/06 09:09:20;;;;;;;2.67;2.10;;;12.20;89.60;;;;;;5015915;28;20444;-81
2021/10/06 09:11:48;;;;;;;2.67;2.10;;;12.30;89.60;;;;;;5007735;28;20071;-80
2021/10/06 09:14:15;;;;;;;2.28;1.67;;;12.30;89.30;;;;;;5009559;28;20026;-81
2021/10/06 09:16:41;;;;;;;2.35;2.15;;;12.30;89.10;;;;;;5009945;28;20038;-80
2021/10/06 09:19:08;;;;;;;4.75;4.35;;;12.40;89.20;;;;;;5008160;28;20101;-81
2021/10/06 09:21:56;;;;;;;3.40;2.28;;;12.40;89.20;;;;;;5008855;28;20067;-81
2021/10/06 09:24:23;;;;;;;1.75;1.50;;;12.40;89.30;;;;;;5008355;28;20026;-81
2021/10/06 09:27:03;;;;;;;2.05;1.50;;;12.40;89.30;;;;;;5011495;28;20448;-79
2021/10/06 09:29:29;;;;;;;1.40;1.30;;;12.50;89.30;;;;;;5008221;28;20022;-83
2021/10/06 09:31:55;;;;;;;1.75;1.65;;;12.60;89.20;;;;;;5007800;28;20026;-83
2021/10/06 09:34:20;;;;;;;2.90;2.00;;;12.60;89.10;;;;;;5039176;28;20023;-82
2021/10/06 09:36:46;;;;;;;2.85;1.70;;;12.70;89.20;;;;;;5039180;28;20029;-80
2021/10/06 09:39:11;;;;;;;2.85;1.88;;;12.80;89.10;;;;;;5007300;28;20022;-76
2021/10/06 09:41:40;;;;;;;2.40;1.65;;;12.80;89.00;;;;;;5003644;28;20062;-80
2021/10/06 09:44:16;;;;;;;2.90;2.33;;;12.90;89.00;;;;;;5014609;28;20109;-80
2021/10/06 09:46:47;;;;;;;2.67;1.88;;;12.90;89.00;;;;;;5044619;28;20022;-80
2021/10/06 09:49:21;;;;;;;2.53;1.67;;;13.00;88.90;;;;;;5008951;28;20037;-81
2021/10/06 09:51:48;;;;;;;3.17;1.75;;;13.00;88.90;;;;;;5015456;28;20021;-78
2021/10/06 09:54:14;;;;;;;3.15;1.75;;;13.10;88.90;;;;;;5009598;28;20018;-81
2021/10/06 09:56:45;;;;;;;3.72;1.92;;;13.10;88.80;;;;;;5013348;28;20041;-81
2021/10/06 09:59:14;;;;;;;3.97;2.13;;;13.10;88.80;;;;;;5011555;28;20046;-81
2021/10/06 10:01:41;;;;;;;2.65;1.27;;;13.20;88.80;;;;;;5011757;28;20833;-81
2021/10/06 10:04:09;;;;;;;2.10;1.20;;;13.20;88.70;;;;;;5009650;28;20026;-80
2021/10/06 10:06:36;;;;;;;2.72;1.10;;;13.20;88.70;;;;;;5025142;28;20462;-80
2021/10/06 10:09:04;;;;;;;2.67;1.50;;;13.20;88.70;;;;;;5022125;28;20065;-81
2021/10/06 10:11:30;;;;;;;1.33;1.20;;;13.20;88.60;;;;;;5062648;28;20034;-81
2021/10/06 10:13:56;;;;;;;1.40;1.10;;;13.40;88.70;;;;;;5012387;28;20506;-81
2021/10/06 10:16:22;;;;;;;2.60;1.30;;;13.40;88.30;;;;;;5060029;28;20488;-82
2021/10/06 10:18:47;;;;;;;2.30;1.30;;;13.40;88.20;;;;;;5020094;28;20425;-82
2021/10/06 10:21:15;;;;;;;1.92;1.15;;;13.40;88.20;;;;;;5025555;28;20029;-82
2021/10/06 10:23:41;;;;;;;1.67;1.25;;;13.40;88.20;;;;;;5029247;28;20040;-82
2021/10/06 10:26:24;;;;;;;2.22;1.30;;;13.40;88.10;;;;;;5009392;28;20428;-81
2021/10/06 10:28:50;;;;;;;2.15;1.40;;;13.40;88.10;;;;;;5008364;28;20422;-81
2021/10/06 10:31:18;;;;;;;2.47;1.30;;;13.40;88.00;;;;;;5011283;28;20041;-82
2021/10/06 10:33:47;;;;;;;2.47;1.35;;;13.50;88.00;;;;;;5017191;28;20029;-83
2021/10/06 10:36:34;;;;;;;4.78;1.55;;;13.50;88.00;;;;;;5022955;28;20034;-81
2021/10/06 10:39:06;;;;;;;4.22;1.70;;;13.50;88.00;;;;;;5022182;28;20052;-82
2021/10/06 10:41:48;;;;;;;3.85;1.42;;;13.50;88.00;;;;;;5025818;28;20034;-82
2021/10/06 10:44:23;;;;;;;3.20;1.60;;;13.50;88.10;;;;;;5036543;28;20790;-82
2021/10/06 10:47:03;;;;;;;4.05;1.52;;;13.60;88.20;;;;;;5018391;28;20022;-82
2021/10/06 10:49:58;;;;;;;3.92;1.30;;;13.60;88.30;;;;;;5020665;28;20045;-82
2021/10/06 10:52:47;;;;;;;4.38;1.80;;;13.70;88.30;;;;;;5048683;28;20106;-82
2021/10/06 10:55:15;;;;;;;5.45;1.67;;;13.80;88.20;;;;;;5015634;28;20034;-81
2021/10/06 10:57:41;;;;;;;4.38;1.63;;;13.90;88.00;;;;;;5001562;28;20072;-83
2021/10/06 11:00:31;;;;;;;2.13;1.17;;;14.00;87.90;;;;;;5012834;28;20018;-82
2021/10/06 11:03:00;;;;;;;5.47;1.67;;;14.20;87.80;;;;;;5031174;28;20034;-80
2021/10/06 11:05:47;;;;;;;5.57;1.45;;;14.30;87.50;;;;;;5007855;28;20037;-81
2021/10/06 11:08:23;;;;;;;2.47;1.05;;;14.40;87.20;;;;;;5011711;28;20037;-80
2021/10/06 11:11:09;;;;;;;1.90;0.90;;;14.60;87.10;;;;;;5004445;28;20129;-80
2021/10/06 11:13:48;;;;;;;4.25;1.30;;;14.60;86.80;;;;;;5006492;28;20467;-77
2021/10/06 11:16:14;;;;;;;2.67;1.30;;;14.60;86.70;;;;;;5006660;28;20094;-80
2021/10/06 11:18:57;;;;;;;2.28;1.30;;;14.60;86.60;;;;;;5010354;28;20104;-81
2021/10/06 11:21:37;;;;;;;2.50;1.23;;;14.60;86.70;;;;;;5006054;28;20387;-80
2021/10/06 11:24:20;;;;;;;2.88;1.10;;;14.70;86.60;;;;;;5011722;28;20022;-78
2021/10/06 11:26:46;;;;;;;4.78;1.40;;;14.70;86.50;;;;;;5010634;28;20389;-80
2021/10/06 11:29:12;;;;;;;6.30;5.03;;;14.70;86.40;;;;;;5023702;28;20387;-81
2021/10/06 11:31:39;;;;;;;3.45;2.70;;;14.70;86.40;;;;;;5022612;28;20078;-81
2021/10/06 11:34:16;;;;;;;2.85;1.45;;;14.60;86.40;;;;;;5025283;28;20029;-78
2021/10/06 11:36:53;;;;;;;1.35;1.20;;;14.70;86.50;;;;;;5030911;28;20480;-78
2021/10/06 11:39:20;;;;;;;3.47;1.40;;;14.80;86.40;;;;;;5115822;27;20027;-80
2021/10/06 11:41:51;;;;;;;1.88;1.00;;;14.90;86.10;;;;;;5026163;28;20033;-79
2021/10/06 11:44:26;;;;;;;1.83;0.70;;;15.00;86.00;;;;;;5037408;28;20026;-77
2021/10/06 11:46:56;;;;;;;1.80;0.90;;;15.20;85.70;;;;;;5036857;28;20022;-76
2021/10/06 11:49:22;;;;;;;4.00;1.20;;;15.20;85.50;;;;;;5029483;28;20201;-81
2021/10/06 11:51:51;;;;;;;2.35;1.20;;;15.30;85.40;;;;;;5027104;28;20480;-77
2021/10/06 11:54:18;;;;;;;1.30;0.93;;;15.30;85.20;;;;;;5042677;28;20382;-78
2021/10/06 11:56:48;;;;;;;1.95;1.30;;;15.30;85.20;;;;;;5026994;28;20042;-80
2021/10/06 11:59:15;;;;;;;1.85;0.93;;;15.20;85.00;;;;;;5030763;28;20042;-80
2021/10/06 12:01:55;;;;;;;2.03;0.98;;;15.20;85.00;;;;;;5023677;28;20034;-78
2021/10/06 12:04:24;;;;;;;1.63;1.00;;;15.20;85.10;;;;;;5019485;28;20026;-78
2021/10/06 12:07:01;;;;;;;3.35;1.30;;;15.20;85.20;;;;;;5039535;28;20555;-78
2021/10/06 12:09:53;;;;;;;2.92;0.98;;;15.20;85.10;;;;;;5051959;28;20027;-80
2021/10/06 12:12:26;;;;;;;2.67;1.40;;;15.20;85.10;;;;;;5048266;28;20045;-82
2021/10/06 12:14:59;;;;;;;4.47;1.52;;;15.20;85.10;;;;;;5032816;28;20070;-79
2021/10/06 12:17:36;;;;;;;1.65;0.85;;;15.30;85.20;;;;;;5033319;28;20042;-79
2021/10/06 12:20:22;;;;;;;3.75;1.30;;;15.40;85.10;;;;;;5034355;28;20030;-79
2021/10/06 12:22:54;;;;;;;1.92;0.80;;;15.70;85.00;;;;;;5007973;28;20034;-78
2021/10/06 12:25:25;;;;;;;3.88;1.77;;;15.80;84.70;;;;;;5044588;28;20042;-78
2021/10/06 12:27:58;;;;;;;3.72;1.75;;;15.80;84.30;;;;;;5031611;28;20022;-79
2021/10/06 12:30:30;;;;;;;3.53;1.10;;;15.70;84.20;;;;;;5030276;28;20476;-80
2021/10/06 12:33:01;;;;;;;4.63;1.30;;;15.70;84.40;;;;;;5027806;28;20045;-79
2021/10/06 12:35:27;;;;;;;3.55;1.35;;;15.70;84.40;;;;;;5052769;28;20084;-78
2021/10/06 12:37:59;;;;;;;3.83;1.20;;;15.70;84.50;;;;;;5047277;28;20092;-81
2021/10/06 12:40:39;;;;;;;2.60;1.30;;;15.80;84.50;;;;;;5019068;28;20030;-78
2021/10/06 12:43:07;;;;;;;3.97;1.33;;;16.00;84.30;;;;;;5013822;28;20036;-79
2021/10/06 12:45:33;;;;;;;2.17;1.20;;;16.10;84.20;;;;;;5010836;28;20045;-78
2021/10/06 12:47:59;;;;;;;2.88;1.25;;;16.30;83.80;;;;;;5007751;28;20033;-80